Time;durP1;ratioP1;P1;durP2;ratioP2;P2;SDS_P1;SDS_P2;PMS_P1;PMS_P2;Temp;Humidity;BMP_temperature;BMP_pressure;BME280_temperature;BME280_humidity;BME280_pressure;Samples;Min_cycle;Max_cycle;Signal;HPM_P1;HPM_P2
2022/11/05 00:09:28;;;;;;;6.88;2.60;;;;;;;;;;6278064;22;20050;-79
2022/11/05 00:17:07;;;;;;;3.75;1.80;;;;;;;;;;6276826;22;20065;-78
2022/11/05 00:19:33;;;;;;;5.10;2.15;;;;;;;;;;6249482;22;19999;-78
2022/11/05 00:27:28;;;;;;;4.88;2.45;;;;;;;;;;6277396;22;20042;-78
2022/11/05 00:29:54;;;;;;;4.40;2.10;;;;;;;;;;6250067;22;20007;-78
2022/11/05 00:32:20;;;;;;;4.88;2.40;;;;;;;;;;6276663;22;20007;-78
2022/11/05 00:34:46;;;;;;;5.25;2.60;;;;;;;;;;6250595;22;20000;-78
2022/11/05 00:37:12;;;;;;;5.32;2.58;;;;;;;;;;6277542;22;20010;-78
2022/11/05 00:39:38;;;;;;;5.70;2.58;;;;;;;;;;6278058;22;20435;-78
2022/11/05 00:45:01;;;;;;;5.32;2.10;;;;;;;;;;6276805;22;20098;-78
2022/11/05 00:50:12;;;;;;;4.80;2.50;;;;;;;;;;6277159;22;20018;-78
2022/11/05 00:53:00;;;;;;;4.93;2.20;;;;;;;;;;6276422;22;20031;-78
2022/11/05 00:55:28;;;;;;;6.07;2.30;;;;;;;;;;6277149;22;20450;-78
2022/11/05 00:57:55;;;;;;;5.57;2.60;;;;;;;;;;6276746;22;19999;-79
2022/11/05 01:00:22;;;;;;;6.03;2.10;;;;;;;;;;6277342;22;20026;-78
2022/11/05 01:02:48;;;;;;;4.00;1.88;;;;;;;;;;6276575;22;20163;-78
2022/11/05 01:05:14;;;;;;;4.40;1.90;;;;;;;;;;6276745;22;20003;-78
2022/11/05 01:07:40;;;;;;;3.85;1.55;;;;;;;;;;6276750;22;20292;-79
2022/11/05 01:10:07;;;;;;;4.68;1.80;;;;;;;;;;6277257;22;20038;-78
2022/11/05 01:12:34;;;;;;;3.50;1.45;;;;;;;;;;6277087;22;20010;-78
2022/11/05 01:15:00;;;;;;;4.07;1.70;;;;;;;;;;6276986;22;20004;-78
2022/11/05 01:17:26;;;;;;;3.90;1.73;;;;;;;;;;6276570;22;20007;-78
2022/11/05 01:19:52;;;;;;;4.00;1.75;;;;;;;;;;6276756;22;20006;-78
2022/11/05 01:22:18;;;;;;;3.63;1.73;;;;;;;;;;6279007;22;19999;-78
2022/11/05 01:24:44;;;;;;;4.88;1.75;;;;;;;;;;6249622;22;20013;-78
2022/11/05 01:27:10;;;;;;;3.83;1.50;;;;;;;;;;6276957;22;20034;-78
2022/11/05 01:29:36;;;;;;;3.75;1.60;;;;;;;;;;6249416;22;20008;-78
2022/11/05 01:32:02;;;;;;;3.88;1.70;;;;;;;;;;6277858;22;20039;-77
2022/11/05 01:34:29;;;;;;;3.17;1.30;;;;;;;;;;6278200;22;20027;-78
2022/11/05 01:36:56;;;;;;;3.35;1.40;;;;;;;;;;6279641;22;20003;-78
2022/11/05 01:39:22;;;;;;;4.05;1.50;;;;;;;;;;6252952;22;20007;-78
2022/11/05 01:41:48;;;;;;;3.80;1.60;;;;;;;;;;6252266;22;20447;-78
2022/11/05 01:44:33;;;;;;;3.90;1.55;;;;;;;;;;6277327;22;20043;-78
2022/11/05 01:46:59;;;;;;;3.47;1.63;;;;;;;;;;6276847;22;20004;-78
2022/11/05 01:49:31;;;;;;;5.13;1.63;;;;;;;;;;6276672;22;20004;-78
2022/11/05 01:51:58;;;;;;;3.80;1.88;;;;;;;;;;6277407;22;20451;-78
2022/11/05 01:54:27;;;;;;;3.83;1.80;;;;;;;;;;6275689;22;20043;-79
2022/11/05 01:56:55;;;;;;;4.63;2.08;;;;;;;;;;6276618;22;20026;-78
2022/11/05 01:59:24;;;;;;;4.60;1.90;;;;;;;;;;6276195;22;19996;-78
2022/11/05 02:01:50;;;;;;;4.40;2.00;;;;;;;;;;6276061;22;19999;-78
2022/11/05 02:04:23;;;;;;;4.57;2.00;;;;;;;;;;6248819;22;20010;-79
2022/11/05 02:06:50;;;;;;;4.95;2.33;;;;;;;;;;6249248;22;20086;-78
2022/11/05 02:09:26;;;;;;;6.53;2.67;;;;;;;;;;6276139;22;19999;-78
2022/11/05 02:11:52;;;;;;;5.43;2.63;;;;;;;;;;6277908;22;20031;-78
2022/11/05 02:14:18;;;;;;;4.80;2.38;;;;;;;;;;6251747;22;20010;-78
2022/11/05 02:16:47;;;;;;;5.00;2.55;;;;;;;;;;6278397;22;20054;-78
2022/11/05 02:19:16;;;;;;;5.85;2.58;;;;;;;;;;6278726;22;20004;-78
2022/11/05 02:22:01;;;;;;;4.88;2.55;;;;;;;;;;6250348;22;20004;-78
2022/11/05 02:24:36;;;;;;;4.72;2.50;;;;;;;;;;6277046;22;20069;-78
2022/11/05 02:27:02;;;;;;;5.60;2.70;;;;;;;;;;6249505;22;20004;-78
2022/11/05 02:29:28;;;;;;;4.32;2.13;;;;;;;;;;6276945;22;19999;-78
2022/11/05 02:31:54;;;;;;;4.88;2.42;;;;;;;;;;6252435;22;20003;-77
2022/11/05 02:34:32;;;;;;;4.55;2.22;;;;;;;;;;6286842;22;20049;-77
2022/11/05 02:37:07;;;;;;;4.43;2.40;;;;;;;;;;6257705;22;20197;-78
2022/11/05 02:39:33;;;;;;;5.00;2.60;;;;;;;;;;6250204;22;20004;-78
2022/11/05 02:42:18;;;;;;;6.13;2.30;;;;;;;;;;6277551;22;20394;-78
2022/11/05 02:45:07;;;;;;;5.13;2.70;;;;;;;;;;6276281;22;20012;-78
2022/11/05 02:47:36;;;;;;;4.47;2.20;;;;;;;;;;6230318;22;20006;-78
2022/11/05 02:50:08;;;;;;;4.15;2.10;;;;;;;;;;6276222;22;20067;-78
2022/11/05 02:52:49;;;;;;;4.78;2.45;;;;;;;;;;6276766;22;20057;-78
2022/11/05 02:55:18;;;;;;;5.28;2.70;;;;;;;;;;6278119;22;20031;-78
2022/11/05 02:57:46;;;;;;;6.50;3.05;;;;;;;;;;6278397;22;19996;-78
2022/11/05 03:00:31;;;;;;;5.70;2.58;;;;;;;;;;6278807;22;20365;-78
2022/11/05 03:02:57;;;;;;;4.95;2.47;;;;;;;;;;6250252;22;20474;-78
2022/11/05 03:05:27;;;;;;;4.70;2.63;;;;;;;;;;6277499;22;20054;-78
2022/11/05 03:07:55;;;;;;;4.53;2.33;;;;;;;;;;6250351;22;20008;-78
2022/11/05 03:10:27;;;;;;;5.43;2.67;;;;;;;;;;6277515;22;20083;-78
2022/11/05 03:13:13;;;;;;;5.82;3.05;;;;;;;;;;6277565;22;20004;-78
2022/11/05 03:15:58;;;;;;;5.10;2.60;;;;;;;;;;6223858;22;20011;-78
2022/11/05 03:18:27;;;;;;;5.78;3.00;;;;;;;;;;6277343;22;20012;-78
2022/11/05 03:20:52;;;;;;;6.90;3.17;;;;;;;;;;6282217;22;20343;-78
2022/11/05 03:23:27;;;;;;;5.82;3.10;;;;;;;;;;6281155;22;20000;-78
2022/11/05 03:25:55;;;;;;;6.70;3.55;;;;;;;;;;6277787;22;20004;-79
2022/11/05 03:28:23;;;;;;;6.20;3.17;;;;;;;;;;6250365;22;20015;-78
2022/11/05 03:30:50;;;;;;;6.60;3.80;;;;;;;;;;6277461;22;20000;-78
2022/11/05 03:33:19;;;;;;;6.93;3.75;;;;;;;;;;6249224;22;20057;-78
2022/11/05 03:35:47;;;;;;;7.53;4.43;;;;;;;;;;6277036;22;20529;-78
2022/11/05 03:38:15;;;;;;;6.85;3.90;;;;;;;;;;6277015;22;20004;-78
2022/11/05 03:40:42;;;;;;;8.13;4.07;;;;;;;;;;6277330;22;20026;-78
2022/11/05 03:43:08;;;;;;;7.30;4.13;;;;;;;;;;6276271;22;20332;-78
2022/11/05 03:45:37;;;;;;;7.13;4.15;;;;;;;;;;6277039;22;20000;-78
2022/11/05 03:48:04;;;;;;;7.63;4.57;;;;;;;;;;6277231;22;20447;-78
2022/11/05 03:50:39;;;;;;;6.93;4.40;;;;;;;;;;6277285;22;20428;-78
2022/11/05 03:53:15;;;;;;;7.40;4.35;;;;;;;;;;6276349;22;19996;-78
2022/11/05 03:55:46;;;;;;;6.93;3.92;;;;;;;;;;6277644;22;20003;-78
2022/11/05 03:58:13;;;;;;;7.30;4.22;;;;;;;;;;6278680;22;20011;-78
2022/11/05 04:00:39;;;;;;;7.13;4.03;;;;;;;;;;6277310;22;20007;-78
2022/11/05 04:03:05;;;;;;;7.72;4.00;;;;;;;;;;6276988;22;20403;-78
2022/11/05 04:05:31;;;;;;;8.05;4.10;;;;;;;;;;6277518;22;19996;-79
2022/11/05 04:13:24;;;;;;;6.45;3.83;;;;;;;;;;6279302;22;20015;-78
2022/11/05 04:18:39;;;;;;;7.47;4.22;;;;;;;;;;6277430;22;20343;-78
2022/11/05 04:24:08;;;;;;;7.47;3.70;;;;;;;;;;6277773;22;20100;-78
2022/11/05 04:26:35;;;;;;;8.65;4.78;;;;;;;;;;6277321;22;20010;-77
2022/11/05 04:31:46;;;;;;;8.13;4.20;;;;;;;;;;6275458;22;20018;-77
2022/11/05 04:34:12;;;;;;;7.28;4.10;;;;;;;;;;6275216;22;20031;-77
2022/11/05 04:36:38;;;;;;;7.95;4.78;;;;;;;;;;6275709;22;20000;-77
2022/11/05 04:39:04;;;;;;;6.88;4.50;;;;;;;;;;6275466;22;20000;-77
2022/11/05 04:41:30;;;;;;;9.07;5.18;;;;;;;;;;6248490;22;20000;-77
2022/11/05 04:43:56;;;;;;;7.32;4.20;;;;;;;;;;6274676;22;20027;-77
2022/11/05 04:46:22;;;;;;;7.57;4.13;;;;;;;;;;6275147;22;20000;-77
2022/11/05 04:48:48;;;;;;;6.90;4.30;;;;;;;;;;6274924;22;20053;-77
2022/11/05 04:51:14;;;;;;;9.20;5.95;;;;;;;;;;6275640;22;20010;-77
2022/11/05 04:53:40;;;;;;;9.18;5.30;;;;;;;;;;6274873;22;20497;-77
2022/11/05 04:56:10;;;;;;;7.88;4.28;;;;;;;;;;6275827;22;20435;-77
2022/11/05 04:58:40;;;;;;;9.18;4.82;;;;;;;;;;6275335;22;20459;-77
2022/11/05 05:01:10;;;;;;;7.03;4.60;;;;;;;;;;6275851;22;20054;-77
2022/11/05 05:03:36;;;;;;;7.95;4.95;;;;;;;;;;6274851;22;20023;-77
2022/11/05 05:06:01;;;;;;;9.00;4.60;;;;;;;;;;6248289;22;20436;-77
2022/11/05 05:08:27;;;;;;;8.70;4.13;;;;;;;;;;6275642;22;20007;-77
2022/11/05 05:10:53;;;;;;;8.02;4.47;;;;;;;;;;6275021;22;20000;-77
2022/11/05 05:13:19;;;;;;;7.85;4.75;;;;;;;;;;6275328;22;20010;-77
2022/11/05 05:15:45;;;;;;;8.15;4.45;;;;;;;;;;6248038;22;20000;-77
2022/11/05 05:18:12;;;;;;;7.60;4.45;;;;;;;;;;6274393;22;20000;-77
2022/11/05 05:23:23;;;;;;;7.53;3.92;;;;;;;;;;6275945;22;20018;-77
2022/11/05 05:25:49;;;;;;;9.57;4.38;;;;;;;;;;6248555;22;20011;-77
2022/11/05 05:28:15;;;;;;;8.68;4.05;;;;;;;;;;6275244;22;20086;-77
2022/11/05 05:30:41;;;;;;;6.68;4.03;;;;;;;;;;6275630;22;19999;-77
2022/11/05 05:33:07;;;;;;;7.70;3.85;;;;;;;;;;6247802;22;20014;-77
2022/11/05 05:35:33;;;;;;;7.78;4.28;;;;;;;;;;6275407;22;20007;-77
2022/11/05 05:38:00;;;;;;;8.23;4.07;;;;;;;;;;6275831;22;20445;-77
2022/11/05 05:40:26;;;;;;;7.80;4.72;;;;;;;;;;6247900;22;20011;-77
2022/11/05 05:42:53;;;;;;;7.00;4.13;;;;;;;;;;6275171;22;20002;-77
2022/11/05 05:45:19;;;;;;;8.23;3.92;;;;;;;;;;6275079;22;20029;-77
2022/11/05 05:47:46;;;;;;;6.78;3.88;;;;;;;;;;6246655;22;20475;-77
2022/11/05 05:50:12;;;;;;;6.72;3.90;;;;;;;;;;6274524;22;20004;-77
2022/11/05 05:52:38;;;;;;;7.13;4.20;;;;;;;;;;6274711;22;20010;-78
2022/11/05 05:55:04;;;;;;;8.50;4.38;;;;;;;;;;6274840;22;20032;-77
2022/11/05 05:57:30;;;;;;;8.23;4.43;;;;;;;;;;6274275;22;19996;-77
2022/11/05 05:59:56;;;;;;;8.63;4.55;;;;;;;;;;6274110;22;20074;-77
2022/11/05 06:02:22;;;;;;;8.73;5.70;;;;;;;;;;6274257;22;20004;-77
2022/11/05 06:04:48;;;;;;;9.35;5.28;;;;;;;;;;6275802;22;20006;-77
2022/11/05 06:07:14;;;;;;;9.25;5.35;;;;;;;;;;6281093;22;20427;-77
2022/11/05 06:09:40;;;;;;;8.95;5.47;;;;;;;;;;6279442;22;19999;-77
2022/11/05 06:12:06;;;;;;;8.57;4.53;;;;;;;;;;6275522;22;20010;-77
2022/11/05 06:14:32;;;;;;;8.60;4.32;;;;;;;;;;6274689;22;20014;-77
2022/11/05 06:16:58;;;;;;;8.00;4.60;;;;;;;;;;6247469;22;20000;-78
2022/11/05 06:19:24;;;;;;;10.60;5.68;;;;;;;;;;6247415;22;20011;-77
2022/11/05 06:21:50;;;;;;;8.60;4.45;;;;;;;;;;6275101;22;20490;-78
2022/11/05 06:24:16;;;;;;;7.72;4.78;;;;;;;;;;6274727;22;20007;-78
2022/11/05 06:26:43;;;;;;;7.93;4.18;;;;;;;;;;6248183;22;20061;-78
2022/11/05 06:29:09;;;;;;;6.60;4.03;;;;;;;;;;6276735;22;20334;-78
2022/11/05 06:31:35;;;;;;;8.77;5.00;;;;;;;;;;6277328;22;20474;-78
2022/11/05 06:34:01;;;;;;;8.35;5.03;;;;;;;;;;6276858;22;20000;-77
2022/11/05 06:36:27;;;;;;;8.18;5.05;;;;;;;;;;6249186;22;20003;-78
2022/11/05 06:38:53;;;;;;;7.03;4.60;;;;;;;;;;6275099;22;20095;-77
2022/11/05 06:41:19;;;;;;;7.32;4.00;;;;;;;;;;6275511;22;20430;-77
2022/11/05 06:43:45;;;;;;;7.40;4.05;;;;;;;;;;6276335;22;20153;-78
2022/11/05 06:46:11;;;;;;;7.13;3.95;;;;;;;;;;6248399;22;20011;-77
2022/11/05 06:48:38;;;;;;;7.65;4.65;;;;;;;;;;6276093;22;20008;-77
2022/11/05 06:51:04;;;;;;;8.13;3.90;;;;;;;;;;6247955;22;20011;-78
2022/11/05 06:53:30;;;;;;;7.72;4.03;;;;;;;;;;6275300;22;19996;-78
2022/11/05 06:55:56;;;;;;;9.55;4.13;;;;;;;;;;6275674;22;20003;-78
2022/11/05 06:58:22;;;;;;;6.68;4.05;;;;;;;;;;6275252;22;19999;-77
2022/11/05 07:00:49;;;;;;;7.43;3.67;;;;;;;;;;6275500;22;20018;-77
2022/11/05 07:03:15;;;;;;;9.60;4.55;;;;;;;;;;6275583;22;20023;-77
2022/11/05 07:05:43;;;;;;;8.00;4.45;;;;;;;;;;6279695;22;20503;-78
2022/11/05 07:08:10;;;;;;;8.85;5.00;;;;;;;;;;6277934;22;20046;-78
2022/11/05 07:10:36;;;;;;;7.53;3.80;;;;;;;;;;6277486;22;19996;-78
2022/11/05 07:13:02;;;;;;;7.03;4.05;;;;;;;;;;6251628;22;20006;-78
2022/11/05 07:15:28;;;;;;;6.25;3.42;;;;;;;;;;6284253;22;20008;-78
2022/11/05 07:18:00;;;;;;;5.78;3.00;;;;;;;;;;6283960;22;20106;-78
2022/11/05 07:20:26;;;;;;;7.28;3.30;;;;;;;;;;6280853;22;20000;-78
2022/11/05 07:23:00;;;;;;;7.13;3.35;;;;;;;;;;6281003;22;20000;-78
2022/11/05 07:25:26;;;;;;;5.90;3.22;;;;;;;;;;6253515;22;20043;-78
2022/11/05 07:27:52;;;;;;;6.15;3.53;;;;;;;;;;6283642;22;19996;-79
2022/11/05 07:30:18;;;;;;;6.20;3.25;;;;;;;;;;6250804;22;20007;-78
2022/11/05 07:32:44;;;;;;;5.78;2.78;;;;;;;;;;6280345;22;20008;-78
2022/11/05 07:35:10;;;;;;;6.20;3.25;;;;;;;;;;6279363;22;20030;-79
2022/11/05 07:37:46;;;;;;;5.75;2.85;;;;;;;;;;6252745;22;20004;-79
2022/11/05 07:40:13;;;;;;;6.32;3.10;;;;;;;;;;6280372;22;20003;-79
2022/11/05 07:42:43;;;;;;;5.40;2.75;;;;;;;;;;6281266;22;20003;-79
2022/11/05 07:45:09;;;;;;;5.22;2.70;;;;;;;;;;6281772;22;20027;-79
2022/11/05 07:47:59;;;;;;;7.28;3.45;;;;;;;;;;6253905;22;20402;-79
2022/11/05 07:50:26;;;;;;;7.45;3.58;;;;;;;;;;6235073;22;20042;-78
2022/11/05 07:52:52;;;;;;;6.63;3.80;;;;;;;;;;6279625;22;20004;-79
2022/11/05 07:55:19;;;;;;;9.63;4.47;;;;;;;;;;6278284;22;19999;-79
2022/11/05 07:57:49;;;;;;;8.07;4.10;;;;;;;;;;6252741;22;20007;-78
2022/11/05 08:00:20;;;;;;;7.95;4.53;;;;;;;;;;6279069;22;19999;-79
2022/11/05 08:02:56;;;;;;;8.57;4.28;;;;;;;;;;6281017;22;20075;-79
2022/11/05 08:05:22;;;;;;;8.40;5.10;;;;;;;;;;6282395;22;20003;-79
2022/11/05 08:07:48;;;;;;;9.50;4.80;;;;;;;;;;6281651;22;20438;-79
2022/11/05 08:10:14;;;;;;;7.43;3.90;;;;;;;;;;6281193;22;20022;-79
2022/11/05 08:12:40;;;;;;;8.40;4.75;;;;;;;;;;6252038;22;20416;-78
2022/11/05 08:15:06;;;;;;;9.80;4.45;;;;;;;;;;6280684;22;20006;-78
2022/11/05 08:17:33;;;;;;;7.90;4.55;;;;;;;;;;6277697;22;20501;-79
2022/11/05 08:19:58;;;;;;;8.25;4.35;;;;;;;;;;6251157;22;20004;-79
2022/11/05 08:22:24;;;;;;;8.35;4.50;;;;;;;;;;6250542;22;20000;-78
2022/11/05 08:24:51;;;;;;;7.57;4.10;;;;;;;;;;6276233;22;20004;-78
2022/11/05 08:27:17;;;;;;;7.43;4.15;;;;;;;;;;6278479;22;20073;-79
2022/11/05 08:29:43;;;;;;;7.63;4.03;;;;;;;;;;6279786;22;20625;-78
2022/11/05 08:32:09;;;;;;;9.40;4.88;;;;;;;;;;6278142;22;20004;-78
2022/11/05 08:34:34;;;;;;;7.78;3.78;;;;;;;;;;6276539;22;20006;-79
2022/11/05 08:37:02;;;;;;;8.73;4.35;;;;;;;;;;6250951;22;20083;-79
2022/11/05 08:39:28;;;;;;;9.95;4.80;;;;;;;;;;6250808;22;20078;-78
2022/11/05 08:41:54;;;;;;;6.75;4.15;;;;;;;;;;6278990;22;20007;-79
2022/11/05 08:44:20;;;;;;;8.38;4.85;;;;;;;;;;6250804;22;20111;-79
2022/11/05 08:46:46;;;;;;;9.68;4.63;;;;;;;;;;6278785;22;20431;-78
2022/11/05 08:49:12;;;;;;;6.82;3.42;;;;;;;;;;6278255;22;20082;-78
2022/11/05 08:51:38;;;;;;;7.32;4.65;;;;;;;;;;6277694;22;20038;-77
2022/11/05 08:54:04;;;;;;;8.80;4.32;;;;;;;;;;6253558;22;20079;-79
2022/11/05 08:56:30;;;;;;;9.95;4.82;;;;;;;;;;6282711;22;20432;-79
2022/11/05 08:58:56;;;;;;;7.68;4.38;;;;;;;;;;6287681;22;20022;-79
2022/11/05 09:01:22;;;;;;;6.32;3.85;;;;;;;;;;6291692;22;20000;-79
2022/11/05 09:03:51;;;;;;;6.78;4.18;;;;;;;;;;6290852;22;20050;-79
2022/11/05 09:06:19;;;;;;;8.82;4.35;;;;;;;;;;6290133;22;20004;-79
2022/11/05 09:08:45;;;;;;;8.10;3.53;;;;;;;;;;6264841;22;20256;-78
2022/11/05 09:11:11;;;;;;;6.72;3.60;;;;;;;;;;6255824;22;20000;-79
2022/11/05 09:13:37;;;;;;;7.80;3.78;;;;;;;;;;6283293;22;20007;-77
2022/11/05 09:16:04;;;;;;;7.95;4.13;;;;;;;;;;6282572;22;19995;-79
2022/11/05 09:18:30;;;;;;;8.43;4.22;;;;;;;;;;6285997;22;19996;-79
2022/11/05 09:20:56;;;;;;;7.10;4.10;;;;;;;;;;6286109;22;20087;-79
2022/11/05 09:23:22;;;;;;;10.10;4.82;;;;;;;;;;6258628;22;20499;-78
2022/11/05 09:25:49;;;;;;;6.80;4.18;;;;;;;;;;6286201;22;20015;-78
2022/11/05 09:28:17;;;;;;;13.55;6.38;;;;;;;;;;6285788;22;20010;-79
2022/11/05 09:30:47;;;;;;;9.85;5.35;;;;;;;;;;6288284;22;20147;-79
2022/11/05 09:33:14;;;;;;;8.40;3.75;;;;;;;;;;6287279;22;20000;-78
2022/11/05 09:35:40;;;;;;;8.82;4.25;;;;;;;;;;6287132;22;20018;-79
2022/11/05 09:38:07;;;;;;;6.97;3.95;;;;;;;;;;6262527;22;20004;-79
2022/11/05 09:40:36;;;;;;;7.72;4.80;;;;;;;;;;6257606;22;20027;-79
2022/11/05 09:43:04;;;;;;;7.82;4.07;;;;;;;;;;6288877;22;20029;-81
2022/11/05 09:45:31;;;;;;;7.68;4.00;;;;;;;;;;6286790;22;20045;-79
2022/11/05 09:47:59;;;;;;;9.15;4.70;;;;;;;;;;6290327;22;20006;-80
2022/11/05 09:50:32;;;;;;;8.40;4.50;;;;;;;;;;6261804;22;20379;-78
2022/11/05 09:52:58;;;;;;;8.15;4.53;;;;;;;;;;6285250;22;20006;-79
2022/11/05 09:55:29;;;;;;;8.75;4.57;;;;;;;;;;6287694;22;20015;-79
2022/11/05 09:58:00;;;;;;;6.72;3.90;;;;;;;;;;6288350;22;20011;-79
2022/11/05 10:00:26;;;;;;;8.40;4.05;;;;;;;;;;6262208;22;20038;-79
2022/11/05 10:02:54;;;;;;;11.43;4.15;;;;;;;;;;6291712;22;20030;-80
2022/11/05 10:05:21;;;;;;;7.88;3.30;;;;;;;;;;6293275;22;20004;-78
2022/11/05 10:07:49;;;;;;;7.65;3.88;;;;;;;;;;6291291;22;20024;-80
2022/11/05 10:10:28;;;;;;;7.95;3.95;;;;;;;;;;6264951;22;20422;-82
2022/11/05 10:12:57;;;;;;;6.43;3.75;;;;;;;;;;6258148;22;20007;-84
2022/11/05 10:15:27;;;;;;;8.10;3.70;;;;;;;;;;6256047;22;20390;-80
2022/11/05 10:17:56;;;;;;;8.23;4.43;;;;;;;;;;6285154;22;20015;-82
2022/11/05 10:20:22;;;;;;;10.73;4.07;;;;;;;;;;6284554;22;20042;-80
2022/11/05 10:22:49;;;;;;;7.30;3.75;;;;;;;;;;6281997;22;19996;-81
2022/11/05 10:25:18;;;;;;;7.68;4.10;;;;;;;;;;6255233;22;20030;-80
2022/11/05 10:27:48;;;;;;;9.55;4.10;;;;;;;;;;6284478;22;20023;-81
2022/11/05 10:30:14;;;;;;;8.18;4.03;;;;;;;;;;6281606;22;20029;-82
2022/11/05 10:32:42;;;;;;;7.80;4.15;;;;;;;;;;6282427;22;20004;-80
2022/11/05 10:35:11;;;;;;;8.10;3.90;;;;;;;;;;6282237;22;20309;-80
2022/11/05 10:37:37;;;;;;;7.10;3.53;;;;;;;;;;6255599;22;20003;-80
2022/11/05 10:40:12;;;;;;;6.57;3.80;;;;;;;;;;6281336;22;20083;-82
2022/11/05 10:42:38;;;;;;;6.25;3.85;;;;;;;;;;6283297;22;19996;-80
2022/11/05 10:45:13;;;;;;;8.02;3.90;;;;;;;;;;6283241;22;20082;-81
2022/11/05 10:47:42;;;;;;;6.65;3.80;;;;;;;;;;6281816;22;20000;-80
2022/11/05 10:50:19;;;;;;;6.68;3.60;;;;;;;;;;6282574;22;20003;-79
2022/11/05 10:52:54;;;;;;;6.93;3.42;;;;;;;;;;6280889;22;20000;-80
2022/11/05 10:55:34;;;;;;;5.97;3.65;;;;;;;;;;6284144;22;20087;-80
2022/11/05 10:58:12;;;;;;;6.95;3.55;;;;;;;;;;6281520;22;19991;-80
2022/11/05 11:00:39;;;;;;;6.28;3.80;;;;;;;;;;6280497;22;20050;-79
2022/11/05 11:03:06;;;;;;;5.70;3.30;;;;;;;;;;6285773;22;20003;-81
2022/11/05 11:05:37;;;;;;;6.88;3.40;;;;;;;;;;6285428;22;20390;-79
2022/11/05 11:08:06;;;;;;;5.50;2.72;;;;;;;;;;6257562;22;20012;-82
2022/11/05 11:10:36;;;;;;;6.90;3.08;;;;;;;;;;6284163;22;20003;-79
2022/11/05 11:13:02;;;;;;;5.50;2.70;;;;;;;;;;6256017;22;20008;-78
2022/11/05 11:15:33;;;;;;;6.78;3.28;;;;;;;;;;6280927;22;20049;-79
2022/11/05 11:18:17;;;;;;;5.43;3.10;;;;;;;;;;6253992;22;20026;-81
2022/11/05 11:20:45;;;;;;;5.63;3.05;;;;;;;;;;6257552;22;20000;-81
2022/11/05 11:23:13;;;;;;;5.45;2.53;;;;;;;;;;6256746;22;20000;-79
2022/11/05 11:25:41;;;;;;;6.00;3.17;;;;;;;;;;6255927;22;20435;-79
2022/11/05 11:28:13;;;;;;;5.50;3.10;;;;;;;;;;6284727;22;20442;-82
2022/11/05 11:30:46;;;;;;;5.75;3.05;;;;;;;;;;6285558;22;20027;-80
2022/11/05 11:33:12;;;;;;;5.43;2.90;;;;;;;;;;6279306;22;20007;-79
2022/11/05 11:35:38;;;;;;;5.38;2.88;;;;;;;;;;6287957;22;20431;-81
2022/11/05 11:38:05;;;;;;;5.95;3.10;;;;;;;;;;6279019;22;20007;-82
2022/11/05 11:40:32;;;;;;;5.07;2.92;;;;;;;;;;6255448;22;20027;-80
2022/11/05 11:43:00;;;;;;;5.35;2.55;;;;;;;;;;6281797;22;20284;-81
2022/11/05 11:45:32;;;;;;;6.05;3.20;;;;;;;;;;6279030;22;20038;-80
2022/11/05 11:48:00;;;;;;;5.18;2.72;;;;;;;;;;6254640;22;20004;-80
2022/11/05 11:50:45;;;;;;;5.75;2.95;;;;;;;;;;6278552;22;20007;-81
2022/11/05 11:53:15;;;;;;;6.57;3.72;;;;;;;;;;6277199;22;20030;-79
2022/11/05 11:55:55;;;;;;;6.50;3.40;;;;;;;;;;6276590;22;20014;-80
2022/11/05 11:58:25;;;;;;;6.68;2.72;;;;;;;;;;6279848;22;20561;-80
2022/11/05 12:00:58;;;;;;;6.20;3.28;;;;;;;;;;6279077;22;20004;-81
2022/11/05 12:03:44;;;;;;;5.68;3.30;;;;;;;;;;6280938;22;20000;-80
2022/11/05 12:06:10;;;;;;;5.28;3.22;;;;;;;;;;6277804;22;20002;-80
2022/11/05 12:09:02;;;;;;;5.68;2.83;;;;;;;;;;6276972;22;20035;-79
2022/11/05 12:11:31;;;;;;;5.60;3.00;;;;;;;;;;6277537;22;19995;-79
2022/11/05 12:14:21;;;;;;;5.22;2.90;;;;;;;;;;6247709;22;20487;-79
2022/11/05 12:16:50;;;;;;;5.65;2.72;;;;;;;;;;6275098;22;20466;-78
2022/11/05 12:19:19;;;;;;;5.43;2.85;;;;;;;;;;6275388;22;20280;-79
2022/11/05 12:21:59;;;;;;;5.85;2.88;;;;;;;;;;6276167;22;20020;-79
2022/11/05 12:24:41;;;;;;;5.40;3.03;;;;;;;;;;6278324;22;20003;-78
2022/11/05 12:27:26;;;;;;;6.40;3.35;;;;;;;;;;6277453;22;20004;-78
2022/11/05 12:30:01;;;;;;;7.05;3.97;;;;;;;;;;6252286;22;20035;-78
2022/11/05 12:32:32;;;;;;;6.72;4.05;;;;;;;;;;6276418;22;20070;-79
2022/11/05 12:35:14;;;;;;;5.93;3.20;;;;;;;;;;6277967;22;20435;-79
2022/11/05 12:37:40;;;;;;;5.30;2.95;;;;;;;;;;6254224;22;19999;-77
2022/11/05 12:40:14;;;;;;;5.40;2.90;;;;;;;;;;6258380;22;20019;-76
2022/11/05 12:42:43;;;;;;;5.55;3.00;;;;;;;;;;6257510;22;20063;-78
2022/11/05 12:45:15;;;;;;;6.47;3.03;;;;;;;;;;6281860;22;20015;-81
2022/11/05 12:47:41;;;;;;;6.20;3.22;;;;;;;;;;6254202;22;20050;-81
2022/11/05 12:50:07;;;;;;;4.90;2.60;;;;;;;;;;6253600;22;20004;-81
2022/11/05 12:52:39;;;;;;;5.43;2.90;;;;;;;;;;6281231;22;20031;-80
2022/11/05 12:55:10;;;;;;;4.80;2.50;;;;;;;;;;6281371;22;19999;-81
2022/11/05 12:57:39;;;;;;;5.72;2.65;;;;;;;;;;6286451;22;20055;-81
2022/11/05 13:00:05;;;;;;;4.97;2.67;;;;;;;;;;6285349;22;20064;-79
2022/11/05 13:02:40;;;;;;;5.43;2.72;;;;;;;;;;6281738;22;20188;-81
2022/11/05 13:05:06;;;;;;;5.20;2.92;;;;;;;;;;6280806;22;20007;-81
2022/11/05 13:07:39;;;;;;;5.50;2.50;;;;;;;;;;6281074;22;20023;-80
2022/11/05 13:10:11;;;;;;;5.93;2.85;;;;;;;;;;6280269;22;20003;-82
2022/11/05 13:12:38;;;;;;;4.90;2.65;;;;;;;;;;6252722;22;20043;-80
2022/11/05 13:15:14;;;;;;;6.00;2.78;;;;;;;;;;6278153;22;20039;-80
2022/11/05 13:17:49;;;;;;;6.05;2.63;;;;;;;;;;6280313;22;20003;-80
2022/11/05 13:20:19;;;;;;;4.47;2.63;;;;;;;;;;6253367;22;20403;-80
2022/11/05 13:22:46;;;;;;;5.63;2.67;;;;;;;;;;6283102;22;20420;-80
2022/11/05 13:25:18;;;;;;;6.45;2.90;;;;;;;;;;6280257;22;20035;-81
2022/11/05 13:27:53;;;;;;;5.50;2.85;;;;;;;;;;6253819;22;20091;-80
2022/11/05 13:30:27;;;;;;;5.18;2.70;;;;;;;;;;6280265;22;20042;-80
2022/11/05 13:33:05;;;;;;;5.50;2.80;;;;;;;;;;6279886;22;20437;-80
2022/11/05 13:35:43;;;;;;;4.78;2.70;;;;;;;;;;6279794;22;20090;-81
2022/11/05 13:41:11;;;;;;;5.10;2.47;;;;;;;;;;6280639;22;20065;-80
2022/11/05 13:43:56;;;;;;;5.35;2.78;;;;;;;;;;6279392;22;20003;-81
2022/11/05 13:46:22;;;;;;;5.65;2.83;;;;;;;;;;6253148;22;20000;-81
2022/11/05 13:48:57;;;;;;;5.78;2.40;;;;;;;;;;6280347;22;20050;-81
2022/11/05 13:51:26;;;;;;;7.38;2.90;;;;;;;;;;6279816;22;20142;-81
2022/11/05 13:54:11;;;;;;;7.38;2.90;;;;;;;;;;6253468;22;20039;-81
2022/11/05 13:56:46;;;;;;;5.05;2.50;;;;;;;;;;6280586;22;19999;-81
2022/11/05 13:59:42;;;;;;;5.13;2.42;;;;;;;;;;6252317;22;19996;-81
2022/11/05 14:02:18;;;;;;;4.95;2.67;;;;;;;;;;6247857;22;20014;-81
2022/11/05 14:04:54;;;;;;;4.38;2.33;;;;;;;;;;6279117;22;20003;-81
2022/11/05 14:07:22;;;;;;;5.00;2.60;;;;;;;;;;6279360;22;20000;-80
2022/11/05 14:09:53;;;;;;;4.63;2.15;;;;;;;;;;6279701;22;20007;-81
2022/11/05 14:12:21;;;;;;;4.85;2.55;;;;;;;;;;6279076;22;20026;-81
2022/11/05 14:14:48;;;;;;;5.72;2.60;;;;;;;;;;6278039;22;20007;-81
2022/11/05 14:17:25;;;;;;;4.95;2.38;;;;;;;;;;6279411;22;20003;-80
2022/11/05 14:20:03;;;;;;;4.70;2.78;;;;;;;;;;6278615;22;20067;-80
2022/11/05 14:22:32;;;;;;;5.82;2.95;;;;;;;;;;6277769;22;20014;-80
2022/11/05 14:25:18;;;;;;;4.60;2.40;;;;;;;;;;6252154;22;20358;-81
2022/11/05 14:27:46;;;;;;;4.50;2.33;;;;;;;;;;6202689;22;20035;-81
2022/11/05 14:30:30;;;;;;;6.40;2.85;;;;;;;;;;6279235;22;20008;-81
2022/11/05 14:33:03;;;;;;;4.57;2.47;;;;;;;;;;6279162;22;20082;-81
2022/11/05 14:35:36;;;;;;;5.72;3.00;;;;;;;;;;6279999;22;20446;-82
2022/11/05 14:38:03;;;;;;;5.32;2.50;;;;;;;;;;6279250;22;20000;-82
2022/11/05 14:40:29;;;;;;;5.10;2.42;;;;;;;;;;6280071;22;19996;-81
2022/11/05 14:42:57;;;;;;;4.90;2.58;;;;;;;;;;6280130;22;20376;-82
2022/11/05 14:45:28;;;;;;;4.57;2.40;;;;;;;;;;6279910;22;20019;-81
2022/11/05 14:47:56;;;;;;;4.80;2.40;;;;;;;;;;6280269;22;20015;-82
2022/11/05 14:50:27;;;;;;;4.93;2.70;;;;;;;;;;6254814;22;20010;-81
2022/11/05 14:52:54;;;;;;;5.72;2.47;;;;;;;;;;6284894;22;20443;-81
2022/11/05 14:55:32;;;;;;;4.63;2.60;;;;;;;;;;6282329;22;20000;-81
2022/11/05 14:57:58;;;;;;;5.35;2.78;;;;;;;;;;6254196;22;20000;-81
2022/11/05 15:00:32;;;;;;;4.57;2.53;;;;;;;;;;6281217;22;20121;-81
2022/11/05 15:03:00;;;;;;;4.28;2.30;;;;;;;;;;6280943;22;19992;-81
2022/11/05 15:05:35;;;;;;;6.70;2.63;;;;;;;;;;6281260;22;19996;-81
2022/11/05 15:08:20;;;;;;;5.32;2.90;;;;;;;;;;6280940;22;20447;-82
2022/11/05 15:10:47;;;;;;;4.50;2.33;;;;;;;;;;6281312;22;20079;-81
2022/11/05 15:13:23;;;;;;;4.85;2.67;;;;;;;;;;6282611;22;20463;-81
2022/11/05 15:15:49;;;;;;;5.28;2.45;;;;;;;;;;6283781;22;20004;-80
2022/11/05 15:18:25;;;;;;;5.50;2.45;;;;;;;;;;6280926;22;19996;-80
2022/11/05 15:20:53;;;;;;;4.93;2.60;;;;;;;;;;6280664;22;19995;-79
2022/11/05 15:23:21;;;;;;;6.53;3.08;;;;;;;;;;6281142;22;19996;-80
2022/11/05 15:25:47;;;;;;;6.07;3.15;;;;;;;;;;6280331;22;20011;-80
2022/11/05 15:28:28;;;;;;;5.53;2.80;;;;;;;;;;6253817;22;20007;-80
2022/11/05 15:31:17;;;;;;;5.38;2.90;;;;;;;;;;6281051;22;20004;-79
2022/11/05 15:33:46;;;;;;;5.10;2.45;;;;;;;;;;6234783;22;20003;-80
2022/11/05 15:36:31;;;;;;;5.03;2.80;;;;;;;;;;6278835;22;20393;-80
2022/11/05 15:38:58;;;;;;;5.13;2.65;;;;;;;;;;6253204;22;20008;-80
2022/11/05 15:41:30;;;;;;;4.22;2.30;;;;;;;;;;6280810;22;20088;-80